Caldwell, New Jersey
Current Conditions -  °F | °C
As of 8:53 PM on Monday 22 Dec 2014 (Local Time) from KCDW Reporting Station
Haze Haze  
Wind Chill: 38°   Ceiling: 600
Heat Index: 42°   Visibility: 6mi
Dew Point: 31°   Wind: 6mph
Humidity: 65%   Direction: 70°ENE
Pressure: 30.2"   Gusts: NA
Location:  40.84°N, 74.27°W
Report Text: KCDW 230153Z AUTO 07005KT 6SM HZ OVC006 06/M01 A3020 RMK AO2 RAB01E19 CIG 005V009 SLP233 P0000 T00561006 TSNO
Loading
Personal Weather Stations






























Interactive Weather Map New forecast layout! Learn more

10-Day Weather Forecast

Advertisements
Track Severe Weather on mobile